sensor_id;sensor_type;location;lat;lon;timestamp;pressure;altitude;pressure_sealevel;temperature;humidity
46534;BME280;32260;52.008;4.752;2023-05-20T00:00:37;102621.19;;;14.72;54.56
46534;BME280;32260;52.008;4.752;2023-05-20T00:03:03;102616.81;;;14.65;54.95
46534;BME280;32260;52.008;4.752;2023-05-20T00:05:29;102619.44;;;14.66;55.31
46534;BME280;32260;52.008;4.752;2023-05-20T00:07:56;102621.22;;;14.64;55.30
46534;BME280;32260;52.008;4.752;2023-05-20T00:10:22;102614.13;;;14.60;55.10
46534;BME280;32260;52.008;4.752;2023-05-20T00:12:48;102618.59;;;14.56;55.40
46534;BME280;32260;52.008;4.752;2023-05-20T00:15:14;102624.88;;;14.55;54.79
46534;BME280;32260;52.008;4.752;2023-05-20T00:17:40;102634.66;;;14.53;55.16
46534;BME280;32260;52.008;4.752;2023-05-20T00:20:07;102626.66;;;14.50;55.19
46534;BME280;32260;52.008;4.752;2023-05-20T00:22:33;102618.69;;;14.47;55.30
46534;BME280;32260;52.008;4.752;2023-05-20T00:24:59;102616.03;;;14.46;55.06
46534;BME280;32260;52.008;4.752;2023-05-20T00:27:25;102631.19;;;14.42;55.72
46534;BME280;32260;52.008;4.752;2023-05-20T00:29:52;102632.97;;;14.40;55.66
46534;BME280;32260;52.008;4.752;2023-05-20T00:32:18;102627.66;;;14.37;55.24
46534;BME280;32260;52.008;4.752;2023-05-20T00:34:44;102618.81;;;14.33;55.34
46534;BME280;32260;52.008;4.752;2023-05-20T00:37:20;102617.91;;;14.33;55.50
46534;BME280;32260;52.008;4.752;2023-05-20T00:39:46;102623.28;;;14.30;55.38
46534;BME280;32260;52.008;4.752;2023-05-20T00:42:19;102613.47;;;14.30;55.35
46534;BME280;32260;52.008;4.752;2023-05-20T00:44:46;102622.41;;;14.24;55.38
46534;BME280;32260;52.008;4.752;2023-05-20T00:47:14;102625.09;;;14.20;55.35
46534;BME280;32260;52.008;4.752;2023-05-20T00:49:42;102623.34;;;14.17;55.53
46534;BME280;32260;52.008;4.752;2023-05-20T00:52:08;102614.47;;;14.15;55.36
46534;BME280;32260;52.008;4.752;2023-05-20T00:54:34;102617.16;;;14.14;55.69
46534;BME280;32260;52.008;4.752;2023-05-20T00:57:02;102618.94;;;14.13;55.37
46534;BME280;32260;52.008;4.752;2023-05-20T00:59:30;102608.28;;;14.10;55.40
46534;BME280;32260;52.008;4.752;2023-05-20T01:01:56;102606.50;;;14.09;55.34
46534;BME280;32260;52.008;4.752;2023-05-20T01:04:23;102603.00;;;14.07;55.49
46534;BME280;32260;52.008;4.752;2023-05-20T01:06:49;102604.75;;;14.06;55.83
46534;BME280;32260;52.008;4.752;2023-05-20T01:09:15;102606.53;;;14.06;55.75
46534;BME280;32260;52.008;4.752;2023-05-20T01:11:47;102609.19;;;14.09;55.70
46534;BME280;32260;52.008;4.752;2023-05-20T01:14:17;102606.50;;;14.09;55.86
46534;BME280;32260;52.008;4.752;2023-05-20T01:16:44;102594.06;;;14.08;55.66
46534;BME280;32260;52.008;4.752;2023-05-20T01:19:23;102603.84;;;14.11;56.13
46534;BME280;32260;52.008;4.752;2023-05-20T01:21:53;102597.66;;;14.08;55.90
46534;BME280;32260;52.008;4.752;2023-05-20T01:24:20;102590.56;;;14.06;55.83
46534;BME280;32260;52.008;4.752;2023-05-20T01:26:46;102588.81;;;14.02;55.88
46534;BME280;32260;52.008;4.752;2023-05-20T01:29:13;102591.47;;;14.00;56.20
46534;BME280;32260;52.008;4.752;2023-05-20T01:31:43;102588.81;;;13.99;56.03
46534;BME280;32260;52.008;4.752;2023-05-20T01:34:12;102584.38;;;13.98;56.31
46534;BME280;32260;52.008;4.752;2023-05-20T01:36:39;102590.59;;;13.97;56.16
46534;BME280;32260;52.008;4.752;2023-05-20T01:39:06;102581.72;;;13.96;56.08
46534;BME280;32260;52.008;4.752;2023-05-20T01:41:33;102579.94;;;13.97;56.32
46534;BME280;32260;52.008;4.752;2023-05-20T01:44:00;102571.09;;;13.95;56.12
46534;BME280;32260;52.008;4.752;2023-05-20T01:46:26;102573.75;;;13.95;56.10
46534;BME280;32260;52.008;4.752;2023-05-20T01:48:52;102573.75;;;13.93;55.85
46534;BME280;32260;52.008;4.752;2023-05-20T01:51:18;102574.66;;;13.90;56.20
46534;BME280;32260;52.008;4.752;2023-05-20T01:53:45;102577.31;;;13.89;55.96
46534;BME280;32260;52.008;4.752;2023-05-20T01:56:11;102577.34;;;13.87;56.16
46534;BME280;32260;52.008;4.752;2023-05-20T01:58:37;102572.03;;;13.86;56.46
46534;BME280;32260;52.008;4.752;2023-05-20T02:01:03;102571.13;;;13.85;56.08
46534;BME280;32260;52.008;4.752;2023-05-20T02:03:29;102569.38;;;13.83;56.43
46534;BME280;32260;52.008;4.752;2023-05-20T02:05:55;102576.50;;;13.82;56.37
46534;BME280;32260;52.008;4.752;2023-05-20T02:08:21;102573.84;;;13.81;56.80
46534;BME280;32260;52.008;4.752;2023-05-20T02:10:48;102571.16;;;13.79;56.73
46534;BME280;32260;52.008;4.752;2023-05-20T02:13:14;102570.28;;;13.79;56.84
46534;BME280;32260;52.008;4.752;2023-05-20T02:15:41;102564.97;;;13.79;56.54
46534;BME280;32260;52.008;4.752;2023-05-20T02:18:07;102564.97;;;13.79;56.68
46534;BME280;32260;52.008;4.752;2023-05-20T02:20:36;102571.16;;;13.79;57.21
46534;BME280;32260;52.008;4.752;2023-05-20T02:23:03;102572.94;;;13.80;56.42
46534;BME280;32260;52.008;4.752;2023-05-20T02:25:33;102574.69;;;13.83;56.50
46534;BME280;32260;52.008;4.752;2023-05-20T02:27:59;102573.81;;;13.84;56.60
46534;BME280;32260;52.008;4.752;2023-05-20T02:30:26;102577.34;;;13.84;56.59
46534;BME280;32260;52.008;4.752;2023-05-20T02:32:52;102571.13;;;13.85;56.53
46534;BME280;32260;52.008;4.752;2023-05-20T02:35:18;102568.47;;;13.85;56.43
46534;BME280;32260;52.008;4.752;2023-05-20T02:37:45;102573.81;;;13.87;56.34
46534;BME280;32260;52.008;4.752;2023-05-20T02:40:11;102565.81;;;13.85;56.61
46534;BME280;32260;52.008;4.752;2023-05-20T02:42:37;102572.94;;;13.83;57.26
46534;BME280;32260;52.008;4.752;2023-05-20T02:45:03;102561.38;;;13.81;56.74
46534;BME280;32260;52.008;4.752;2023-05-20T02:47:29;102563.16;;;13.79;56.74
46534;BME280;32260;52.008;4.752;2023-05-20T02:49:56;102563.19;;;13.76;56.85
46534;BME280;32260;52.008;4.752;2023-05-20T02:52:22;102558.75;;;13.72;56.79
46534;BME280;32260;52.008;4.752;2023-05-20T02:54:48;102552.59;;;13.68;56.69
46534;BME280;32260;52.008;4.752;2023-05-20T02:57:14;102555.25;;;13.67;56.83
46534;BME280;32260;52.008;4.752;2023-05-20T02:59:41;102559.72;;;13.65;56.94
46534;BME280;32260;52.008;4.752;2023-05-20T03:02:07;102557.94;;;13.61;57.41
46534;BME280;32260;52.008;4.752;2023-05-20T03:04:33;102563.28;;;13.59;57.03
46534;BME280;32260;52.008;4.752;2023-05-20T03:07:04;102551.75;;;13.55;56.79
46534;BME280;32260;52.008;4.752;2023-05-20T03:09:31;102557.97;;;13.54;57.07
46534;BME280;32260;52.008;4.752;2023-05-20T03:11:57;102562.44;;;13.52;57.01
46534;BME280;32260;52.008;4.752;2023-05-20T03:14:23;102562.44;;;13.49;57.86
46534;BME280;32260;52.008;4.752;2023-05-20T03:16:49;102562.47;;;13.46;57.53
46534;BME280;32260;52.008;4.752;2023-05-20T03:19:16;102558.91;;;13.44;57.22
46534;BME280;32260;52.008;4.752;2023-05-20T03:21:42;102567.78;;;13.43;57.67
46534;BME280;32260;52.008;4.752;2023-05-20T03:24:08;102566.00;;;13.42;57.71
46534;BME280;32260;52.008;4.752;2023-05-20T03:26:35;102564.28;;;13.41;58.11
46534;BME280;32260;52.008;4.752;2023-05-20T03:29:05;102566.00;;;13.42;57.69
46534;BME280;32260;52.008;4.752;2023-05-20T03:31:32;102567.81;;;13.41;57.48
46534;BME280;32260;52.008;4.752;2023-05-20T03:33:58;102569.59;;;13.41;57.82
46534;BME280;32260;52.008;4.752;2023-05-20T03:36:24;102574.91;;;13.41;58.03
46534;BME280;32260;52.008;4.752;2023-05-20T03:38:50;102567.81;;;13.40;57.52
46534;BME280;32260;52.008;4.752;2023-05-20T03:41:16;102565.16;;;13.38;57.69
46534;BME280;32260;52.008;4.752;2023-05-20T03:43:42;102568.72;;;13.39;57.83
46534;BME280;32260;52.008;4.752;2023-05-20T03:46:08;102569.59;;;13.41;57.98
46534;BME280;32260;52.008;4.752;2023-05-20T03:48:34;102564.28;;;13.41;57.53
46534;BME280;32260;52.008;4.752;2023-05-20T03:51:01;102569.59;;;13.41;57.54
46534;BME280;32260;52.008;4.752;2023-05-20T03:53:27;102563.38;;;13.40;57.88
46534;BME280;32260;52.008;4.752;2023-05-20T03:55:53;102564.28;;;13.41;57.84
46534;BME280;32260;52.008;4.752;2023-05-20T03:58:19;102557.16;;;13.40;57.89
46534;BME280;32260;52.008;4.752;2023-05-20T04:00:45;102563.38;;;13.40;57.78
46534;BME280;32260;52.008;4.752;2023-05-20T04:03:12;102562.50;;;13.40;57.97
46534;BME280;32260;52.008;4.752;2023-05-20T04:05:38;102558.06;;;13.39;57.94
46534;BME280;32260;52.008;4.752;2023-05-20T04:08:04;102547.41;;;13.37;57.99
46534;BME280;32260;52.008;4.752;2023-05-20T04:10:30;102549.16;;;13.35;57.95
46534;BME280;32260;52.008;4.752;2023-05-20T04:12:58;102553.63;;;13.35;57.91
46534;BME280;32260;52.008;4.752;2023-05-20T04:15:24;102555.38;;;13.36;58.00
46534;BME280;32260;52.008;4.752;2023-05-20T04:17:51;102553.63;;;13.38;57.93
46534;BME280;32260;52.008;4.752;2023-05-20T04:20:17;102553.59;;;13.39;57.55
46534;BME280;32260;52.008;4.752;2023-05-20T04:22:44;102563.38;;;13.43;57.75
46534;BME280;32260;52.008;4.752;2023-05-20T04:25:11;102557.16;;;13.46;57.98
46534;BME280;32260;52.008;4.752;2023-05-20T04:27:37;102564.25;;;13.47;57.97
46534;BME280;32260;52.008;4.752;2023-05-20T04:30:05;102564.22;;;13.50;58.13
46534;BME280;32260;52.008;4.752;2023-05-20T04:32:31;102563.31;;;13.51;57.63
46534;BME280;32260;52.008;4.752;2023-05-20T04:34:59;102557.97;;;13.54;58.46
46534;BME280;32260;52.008;4.752;2023-05-20T04:37:28;102558.84;;;13.59;58.14
46534;BME280;32260;52.008;4.752;2023-05-20T04:39:56;102565.94;;;13.64;57.88
46534;BME280;32260;52.008;4.752;2023-05-20T04:42:22;102564.16;;;13.66;57.58
46534;BME280;32260;52.008;4.752;2023-05-20T04:44:48;102573.00;;;13.71;57.98
46534;BME280;32260;52.008;4.752;2023-05-20T04:47:15;102570.31;;;13.74;57.96
46534;BME280;32260;52.008;4.752;2023-05-20T04:49:41;102572.94;;;13.80;58.21
46534;BME280;32260;52.008;4.752;2023-05-20T04:52:07;102571.13;;;13.88;57.82
46534;BME280;32260;52.008;4.752;2023-05-20T04:54:33;102571.09;;;13.95;57.82
46534;BME280;32260;52.008;4.752;2023-05-20T04:56:59;102569.25;;;14.01;58.07
46534;BME280;32260;52.008;4.752;2023-05-20T04:59:26;102565.66;;;14.05;57.97
46534;BME280;32260;52.008;4.752;2023-05-20T05:01:52;102561.19;;;14.09;58.09
46534;BME280;32260;52.008;4.752;2023-05-20T05:04:18;102555.81;;;14.15;57.96
46534;BME280;32260;52.008;4.752;2023-05-20T05:06:46;102554.03;;;14.19;57.59
46534;BME280;32260;52.008;4.752;2023-05-20T05:09:12;102554.88;;;14.22;57.64
46534;BME280;32260;52.008;4.752;2023-05-20T05:11:38;102554.88;;;14.26;57.62
46534;BME280;32260;52.008;4.752;2023-05-20T05:14:04;102551.31;;;14.28;57.84
46534;BME280;32260;52.008;4.752;2023-05-20T05:16:30;102545.91;;;14.33;57.71
46534;BME280;32260;52.008;4.752;2023-05-20T05:18:56;102553.00;;;14.37;58.19
46534;BME280;32260;52.008;4.752;2023-05-20T05:21:22;102558.28;;;14.43;58.12
46534;BME280;32260;52.008;4.752;2023-05-20T05:23:48;102551.16;;;14.47;58.24
46534;BME280;32260;52.008;4.752;2023-05-20T05:26:14;102545.75;;;14.51;58.06
46534;BME280;32260;52.008;4.752;2023-05-20T05:28:41;102540.34;;;14.57;58.03
46534;BME280;32260;52.008;4.752;2023-05-20T05:31:08;102533.22;;;14.66;57.63
46534;BME280;32260;52.008;4.752;2023-05-20T05:33:34;102531.31;;;14.74;57.64
46534;BME280;32260;52.008;4.752;2023-05-20T05:36:01;102540.16;;;14.82;57.81
46534;BME280;32260;52.008;4.752;2023-05-20T05:38:27;102539.22;;;14.88;57.44
46534;BME280;32260;52.008;4.752;2023-05-20T05:40:53;102538.28;;;14.91;57.29
46534;BME280;32260;52.008;4.752;2023-05-20T05:43:19;102540.06;;;14.92;57.29
46534;BME280;32260;52.008;4.752;2023-05-20T05:45:45;102542.72;;;14.93;57.53
46534;BME280;32260;52.008;4.752;2023-05-20T05:48:11;102540.00;;;14.95;57.43
46534;BME280;32260;52.008;4.752;2023-05-20T05:50:37;102539.06;;;14.99;57.42
46534;BME280;32260;52.008;4.752;2023-05-20T05:53:03;102539.91;;;15.04;57.15
46534;BME280;32260;52.008;4.752;2023-05-20T05:55:29;102533.69;;;15.03;56.98
46534;BME280;32260;52.008;4.752;2023-05-20T05:57:56;102532.81;;;15.03;57.31
46534;BME280;32260;52.008;4.752;2023-05-20T06:00:22;102541.66;;;15.05;57.43
46534;BME280;32260;52.008;4.752;2023-05-20T06:02:49;102539.88;;;15.07;57.10
46534;BME280;32260;52.008;4.752;2023-05-20T06:05:15;102541.66;;;15.08;57.23
46534;BME280;32260;52.008;4.752;2023-05-20T06:07:41;102546.94;;;15.11;57.14
46534;BME280;32260;52.008;4.752;2023-05-20T06:10:07;102538.03;;;15.12;57.24
46534;BME280;32260;52.008;4.752;2023-05-20T06:12:34;102543.34;;;15.15;57.36
46534;BME280;32260;52.008;4.752;2023-05-20T06:15:00;102540.63;;;15.18;56.92
46534;BME280;32260;52.008;4.752;2023-05-20T06:17:26;102538.84;;;15.19;56.85
46534;BME280;32260;52.008;4.752;2023-05-20T06:19:52;102545.06;;;15.19;57.27
46534;BME280;32260;52.008;4.752;2023-05-20T06:22:18;102541.50;;;15.20;57.08
46534;BME280;32260;52.008;4.752;2023-05-20T06:24:44;102540.59;;;15.23;57.27
46534;BME280;32260;52.008;4.752;2023-05-20T06:27:10;102537.84;;;15.28;57.32
46534;BME280;32260;52.008;4.752;2023-05-20T06:29:36;102540.47;;;15.31;57.28
46534;BME280;32260;52.008;4.752;2023-05-20T06:32:03;102546.63;;;15.36;57.40
46534;BME280;32260;52.008;4.752;2023-05-20T06:34:29;102533.22;;;15.41;57.46
46534;BME280;32260;52.008;4.752;2023-05-20T06:36:55;102528.75;;;15.44;57.39
46534;BME280;32260;52.008;4.752;2023-05-20T06:39:21;102524.25;;;15.46;57.05
46534;BME280;32260;52.008;4.752;2023-05-20T06:41:47;102527.75;;;15.50;56.84
46534;BME280;32260;52.008;4.752;2023-05-20T06:44:13;102529.50;;;15.54;57.08
46534;BME280;32260;52.008;4.752;2023-05-20T06:46:39;102528.50;;;15.60;57.00
46534;BME280;32260;52.008;4.752;2023-05-20T06:49:05;102518.63;;;15.65;57.24
46534;BME280;32260;52.008;4.752;2023-05-20T06:51:31;102516.78;;;15.72;57.17
46534;BME280;32260;52.008;4.752;2023-05-20T06:53:57;102505.09;;;15.79;57.23
46534;BME280;32260;52.008;4.752;2023-05-20T06:56:23;102513.06;;;15.85;56.82
46534;BME280;32260;52.008;4.752;2023-05-20T06:58:49;102505.84;;;15.90;56.95
46534;BME280;32260;52.008;4.752;2023-05-20T07:01:15;102515.53;;;15.96;56.71
46534;BME280;32260;52.008;4.752;2023-05-20T07:03:41;102510.16;;;15.99;56.79
46534;BME280;32260;52.008;4.752;2023-05-20T07:06:09;102503.84;;;16.03;56.47
46534;BME280;32260;52.008;4.752;2023-05-20T07:08:35;102510.91;;;16.07;57.13
46534;BME280;32260;52.008;4.752;2023-05-20T07:11:01;102509.03;;;16.12;56.80
46534;BME280;32260;52.008;4.752;2023-05-20T07:13:28;102504.50;;;16.17;56.86
46534;BME280;32260;52.008;4.752;2023-05-20T07:15:54;102504.41;;;16.24;56.72
46534;BME280;32260;52.008;4.752;2023-05-20T07:18:20;102496.25;;;16.31;56.53
46534;BME280;32260;52.008;4.752;2023-05-20T07:20:46;102497.00;;;16.38;56.70
46534;BME280;32260;52.008;4.752;2023-05-20T07:23:12;102502.25;;;16.44;56.71
46534;BME280;32260;52.008;4.752;2023-05-20T07:25:38;102502.97;;;16.54;56.52
46534;BME280;32260;52.008;4.752;2023-05-20T07:28:04;102500.09;;;16.63;56.60
46534;BME280;32260;52.008;4.752;2023-05-20T07:30:30;102505.34;;;16.71;56.51
46534;BME280;32260;52.008;4.752;2023-05-20T07:32:56;102495.28;;;16.82;56.17
46534;BME280;32260;52.008;4.752;2023-05-20T07:35:22;102496.00;;;16.91;56.27
46534;BME280;32260;52.008;4.752;2023-05-20T07:37:49;102492.31;;;16.98;55.75
46534;BME280;32260;52.008;4.752;2023-05-20T07:40:15;102493.03;;;17.08;55.82
46534;BME280;32260;52.008;4.752;2023-05-20T07:42:41;102491.06;;;17.16;55.90
46534;BME280;32260;52.008;4.752;2023-05-20T07:45:08;102480.16;;;17.25;55.87
46534;BME280;32260;52.008;4.752;2023-05-20T07:47:34;102483.56;;;17.34;55.66
46534;BME280;32260;52.008;4.752;2023-05-20T07:50:00;102479.75;;;17.44;55.72
46534;BME280;32260;52.008;4.752;2023-05-20T07:52:26;102475.91;;;17.56;55.32
46534;BME280;32260;52.008;4.752;2023-05-20T07:54:52;102474.78;;;17.66;55.38
46534;BME280;32260;52.008;4.752;2023-05-20T07:57:18;102470.94;;;17.76;54.98
46534;BME280;32260;52.008;4.752;2023-05-20T07:59:44;102468.97;;;17.85;54.91
46534;BME280;32260;52.008;4.752;2023-05-20T08:02:10;102459.81;;;17.93;54.81
46534;BME280;32260;52.008;4.752;2023-05-20T08:04:36;102461.31;;;18.05;54.68
46534;BME280;32260;52.008;4.752;2023-05-20T08:07:02;102467.31;;;18.15;54.34
46534;BME280;32260;52.008;4.752;2023-05-20T08:09:30;102467.13;;;18.23;54.00
46534;BME280;32260;52.008;4.752;2023-05-20T08:11:56;102473.19;;;18.31;53.84
46534;BME280;32260;52.008;4.752;2023-05-20T08:14:22;102469.47;;;18.37;53.15
46534;BME280;32260;52.008;4.752;2023-05-20T08:16:48;102464.78;;;18.43;53.34
46534;BME280;32260;52.008;4.752;2023-05-20T08:19:14;102460.13;;;18.50;53.39
46534;BME280;32260;52.008;4.752;2023-05-20T08:21:40;102474.34;;;18.54;53.22
46534;BME280;32260;52.008;4.752;2023-05-20T08:24:07;102461.59;;;18.62;52.90
46534;BME280;32260;52.008;4.752;2023-05-20T08:26:33;102471.28;;;18.68;52.77
46534;BME280;32260;52.008;4.752;2023-05-20T08:28:59;102477.38;;;18.74;52.75
46534;BME280;32260;52.008;4.752;2023-05-20T08:31:25;102462.91;;;18.79;52.57
46534;BME280;32260;52.008;4.752;2023-05-20T08:33:51;102459.13;;;18.86;52.40
46534;BME280;32260;52.008;4.752;2023-05-20T08:36:17;102465.22;;;18.94;52.63
46534;BME280;32260;52.008;4.752;2023-05-20T08:38:44;102453.34;;;19.01;52.17
46534;BME280;32260;52.008;4.752;2023-05-20T08:41:10;102454.78;;;19.13;52.11
46534;BME280;32260;52.008;4.752;2023-05-20T08:43:37;102445.56;;;19.22;51.84
46534;BME280;32260;52.008;4.752;2023-05-20T08:46:03;102439.03;;;19.31;51.76
46534;BME280;32260;52.008;4.752;2023-05-20T08:48:31;102445.06;;;19.37;50.79
46534;BME280;32260;52.008;4.752;2023-05-20T08:50:58;102425.97;;;19.47;50.69
46534;BME280;32260;52.008;4.752;2023-05-20T08:53:26;102424.75;;;19.57;50.50
46534;BME280;32260;52.008;4.752;2023-05-20T08:55:54;102422.56;;;19.68;49.91
46534;BME280;32260;52.008;4.752;2023-05-20T08:58:22;102436.53;;;19.80;49.67
46534;BME280;32260;52.008;4.752;2023-05-20T09:00:50;102424.69;;;19.87;49.09
46534;BME280;32260;52.008;4.752;2023-05-20T09:03:17;102418.88;;;19.99;49.15
46534;BME280;32260;52.008;4.752;2023-05-20T09:05:45;102415.84;;;20.09;48.79
46534;BME280;32260;52.008;4.752;2023-05-20T09:08:12;102411.94;;;20.19;48.50
46534;BME280;32260;52.008;4.752;2023-05-20T09:10:39;102408.81;;;20.30;48.44
46534;BME280;32260;52.008;4.752;2023-05-20T09:13:07;102414.66;;;20.43;48.33
46534;BME280;32260;52.008;4.752;2023-05-20T09:15:34;102415.09;;;20.56;47.76
46534;BME280;32260;52.008;4.752;2023-05-20T09:18:01;102421.84;;;20.67;46.86
46534;BME280;32260;52.008;4.752;2023-05-20T09:20:29;102413.44;;;20.77;46.93
46534;BME280;32260;52.008;4.752;2023-05-20T09:23:11;102408.28;;;20.94;46.56
46534;BME280;32260;52.008;4.752;2023-05-20T09:25:37;102409.09;;;20.96;46.42
46534;BME280;32260;52.008;4.752;2023-05-20T09:28:06;102403.22;;;21.09;45.72
46534;BME280;32260;52.008;4.752;2023-05-20T09:30:32;102390.38;;;21.15;45.63
46534;BME280;32260;52.008;4.752;2023-05-20T09:33:00;102395.53;;;21.22;45.21
46534;BME280;32260;52.008;4.752;2023-05-20T09:35:27;102382.78;;;21.25;45.29
46534;BME280;32260;52.008;4.752;2023-05-20T09:37:54;102379.28;;;21.23;44.51
46534;BME280;32260;52.008;4.752;2023-05-20T09:40:24;102384.66;;;21.23;44.30
46534;BME280;32260;52.008;4.752;2023-05-20T09:43:04;102374.53;;;21.30;44.32
46534;BME280;32260;52.008;4.752;2023-05-20T09:45:31;102380.44;;;21.40;44.73
46534;BME280;32260;52.008;4.752;2023-05-20T09:47:57;102383.66;;;21.48;43.84
46534;BME280;32260;52.008;4.752;2023-05-20T09:50:25;102382.19;;;21.63;43.84
46534;BME280;32260;52.008;4.752;2023-05-20T09:52:53;102378.03;;;21.76;43.93
46534;BME280;32260;52.008;4.752;2023-05-20T09:55:22;102360.56;;;21.85;42.88
46534;BME280;32260;52.008;4.752;2023-05-20T09:57:49;102365.25;;;22.01;43.23
46534;BME280;32260;52.008;4.752;2023-05-20T10:00:16;102366.63;;;22.11;42.41
46534;BME280;32260;52.008;4.752;2023-05-20T10:02:45;102369.56;;;22.25;42.64
46534;BME280;32260;52.008;4.752;2023-05-20T10:05:18;102357.84;;;22.26;41.82
46534;BME280;32260;52.008;4.752;2023-05-20T10:09:14;102355.28;;;22.23;41.10
46534;BME280;32260;52.008;4.752;2023-05-20T10:14:08;102356.50;;;22.16;42.05
46534;BME280;32260;52.008;4.752;2023-05-20T10:16:57;102348.78;;;22.27;41.75
46534;BME280;32260;52.008;4.752;2023-05-20T10:19:32;102352.50;;;22.25;41.63
46534;BME280;32260;52.008;4.752;2023-05-20T10:22:02;102353.53;;;22.22;41.64
46534;BME280;32260;52.008;4.752;2023-05-20T10:27:10;102342.72;;;22.22;40.62
46534;BME280;32260;52.008;4.752;2023-05-20T10:29:49;102337.38;;;22.41;41.24
46534;BME280;32260;52.008;4.752;2023-05-20T10:32:31;102334.75;;;22.59;40.10
46534;BME280;32260;52.008;4.752;2023-05-20T10:35:00;102323.66;;;22.65;39.39
46534;BME280;32260;52.008;4.752;2023-05-20T10:37:28;102333.16;;;22.74;39.78
46534;BME280;32260;52.008;4.752;2023-05-20T10:40:11;102328.09;;;22.85;39.50
46534;BME280;32260;52.008;4.752;2023-05-20T10:42:38;102319.88;;;22.88;40.13
46534;BME280;32260;52.008;4.752;2023-05-20T10:45:08;102315.84;;;22.97;39.89
46534;BME280;32260;52.008;4.752;2023-05-20T10:47:35;102320.72;;;23.08;39.31
46534;BME280;32260;52.008;4.752;2023-05-20T10:50:01;102317.50;;;23.19;39.19
46534;BME280;32260;52.008;4.752;2023-05-20T10:52:33;102321.75;;;23.24;38.81
46534;BME280;32260;52.008;4.752;2023-05-20T10:55:01;102312.38;;;23.32;38.62
46534;BME280;32260;52.008;4.752;2023-05-20T10:57:28;102314.81;;;23.36;38.00
46534;BME280;32260;52.008;4.752;2023-05-20T10:59:55;102312.44;;;23.48;38.82
46534;BME280;32260;52.008;4.752;2023-05-20T11:02:24;102300.59;;;23.50;38.32
46534;BME280;32260;52.008;4.752;2023-05-20T11:04:56;102303.63;;;23.44;38.49
46534;BME280;32260;52.008;4.752;2023-05-20T11:10:21;102298.53;;;23.55;37.96
46534;BME280;32260;52.008;4.752;2023-05-20T11:12:48;102305.22;;;23.66;37.91
46534;BME280;32260;52.008;4.752;2023-05-20T11:15:15;102298.03;;;23.65;37.54
46534;BME280;32260;52.008;4.752;2023-05-20T11:17:52;102293.75;;;23.61;37.96
46534;BME280;32260;52.008;4.752;2023-05-20T11:20:20;102298.34;;;23.58;38.22
46534;BME280;32260;52.008;4.752;2023-05-20T11:22:49;102293.88;;;23.75;38.07
46534;BME280;32260;52.008;4.752;2023-05-20T11:25:17;102285.81;;;23.91;36.04
46534;BME280;32260;52.008;4.752;2023-05-20T11:27:49;102288.13;;;24.16;36.52
46534;BME280;32260;52.008;4.752;2023-05-20T11:30:18;102280.88;;;24.17;37.06
46534;BME280;32260;52.008;4.752;2023-05-20T11:33:01;102282.31;;;24.40;36.74
46534;BME280;32260;52.008;4.752;2023-05-20T11:35:29;102288.00;;;24.51;36.30
46534;BME280;32260;52.008;4.752;2023-05-20T11:38:05;102267.03;;;24.55;36.20
46534;BME280;32260;52.008;4.752;2023-05-20T11:40:33;102278.28;;;24.47;36.55
46534;BME280;32260;52.008;4.752;2023-05-20T11:43:11;102268.69;;;24.58;35.51
46534;BME280;32260;52.008;4.752;2023-05-20T11:45:42;102260.06;;;24.67;36.40
46534;BME280;32260;52.008;4.752;2023-05-20T11:48:12;102270.19;;;24.79;36.06
46534;BME280;32260;52.008;4.752;2023-05-20T11:50:52;102259.00;;;24.85;35.64
46534;BME280;32260;52.008;4.752;2023-05-20T11:53:20;102264.50;;;24.84;35.71
46534;BME280;32260;52.008;4.752;2023-05-20T11:55:50;102259.34;;;24.79;35.97
46534;BME280;32260;52.008;4.752;2023-05-20T11:58:24;102257.44;;;24.81;35.62
46534;BME280;32260;52.008;4.752;2023-05-20T12:00:51;102247.97;;;24.89;35.78
46534;BME280;32260;52.008;4.752;2023-05-20T12:03:17;102252.84;;;24.98;35.39
46534;BME280;32260;52.008;4.752;2023-05-20T12:05:43;102248.03;;;25.03;35.82
46534;BME280;32260;52.008;4.752;2023-05-20T12:08:10;102245.16;;;25.06;35.86
46534;BME280;32260;52.008;4.752;2023-05-20T12:10:39;102235.00;;;25.10;35.79
46534;BME280;32260;52.008;4.752;2023-05-20T12:13:06;102229.19;;;25.16;35.37
46534;BME280;32260;52.008;4.752;2023-05-20T12:15:37;102242.66;;;25.17;35.14
46534;BME280;32260;52.008;4.752;2023-05-20T12:18:07;102228.69;;;25.09;35.68
46534;BME280;32260;52.008;4.752;2023-05-20T12:20:33;102241.81;;;25.01;35.50
46534;BME280;32260;52.008;4.752;2023-05-20T12:22:59;102240.81;;;24.87;35.30
46534;BME280;32260;52.008;4.752;2023-05-20T12:25:26;102240.47;;;24.78;35.87
46534;BME280;32260;52.008;4.752;2023-05-20T12:27:52;102237.13;;;24.89;35.59
46534;BME280;32260;52.008;4.752;2023-05-20T12:30:22;102230.44;;;25.10;35.27
46534;BME280;32260;52.008;4.752;2023-05-20T12:32:49;102226.78;;;25.26;34.81
46534;BME280;32260;52.008;4.752;2023-05-20T12:35:35;102233.84;;;25.44;34.82
46534;BME280;32260;52.008;4.752;2023-05-20T12:38:01;102230.38;;;25.42;34.89
46534;BME280;32260;52.008;4.752;2023-05-20T12:40:27;102229.81;;;25.35;34.96
46534;BME280;32260;52.008;4.752;2023-05-20T12:42:54;102225.81;;;25.27;35.27
46534;BME280;32260;52.008;4.752;2023-05-20T12:45:20;102229.59;;;25.24;35.40
46534;BME280;32260;52.008;4.752;2023-05-20T12:47:46;102223.19;;;25.41;35.46
46534;BME280;32260;52.008;4.752;2023-05-20T12:50:13;102220.31;;;25.59;35.05
46534;BME280;32260;52.008;4.752;2023-05-20T12:52:39;102214.13;;;25.71;35.17
46534;BME280;32260;52.008;4.752;2023-05-20T12:55:05;102219.44;;;25.87;34.73
46534;BME280;32260;52.008;4.752;2023-05-20T12:57:39;102211.59;;;26.11;33.93
46534;BME280;32260;52.008;4.752;2023-05-20T13:00:07;102203.84;;;26.20;33.14